Time;durP1;ratioP1;P1;durP2;ratioP2;P2;SDS_P1;SDS_P2;PMS_P1;PMS_P2;Temp;Humidity;BMP_temperature;BMP_pressure;BME280_temperature;BME280_humidity;BME280_pressure;Samples;Min_cycle;Max_cycle;Signal;HPM_P1;HPM_P2
2022/03/13 00:00:54;;;;;;;34.08;30.70;;;5.70;96.10;;;;;;5009824;28;20135;-73
2022/03/13 00:03:22;;;;;;;33.88;30.70;;;5.80;96.10;;;;;;5034744;28;20433;-73
2022/03/13 00:05:51;;;;;;;34.85;31.55;;;5.80;95.90;;;;;;5028111;28;20037;-74
2022/03/13 00:08:30;;;;;;;33.92;30.65;;;5.80;96.00;;;;;;5023859;28;20496;-74
2022/03/13 00:11:00;;;;;;;35.33;31.80;;;5.80;95.90;;;;;;5001815;28;20083;-76
2022/03/13 00:13:32;;;;;;;35.75;32.03;;;5.70;96.10;;;;;;5004392;28;20053;-74
2022/03/13 00:16:01;;;;;;;34.60;31.15;;;5.70;96.10;;;;;;5019790;28;20539;-74
2022/03/13 00:18:28;;;;;;;34.83;31.42;;;5.70;96.20;;;;;;5020266;28;20045;-75
2022/03/13 00:20:55;;;;;;;33.92;30.70;;;5.70;96.10;;;;;;5019200;28;20414;-73
2022/03/13 00:23:23;;;;;;;35.42;31.92;;;5.60;96.00;;;;;;5020824;28;20057;-76
2022/03/13 00:25:50;;;;;;;34.88;31.50;;;5.60;96.00;;;;;;5000713;28;20049;-73
2022/03/13 00:28:16;;;;;;;36.05;32.30;;;5.60;96.10;;;;;;5018731;28;20167;-74
2022/03/13 00:30:43;;;;;;;33.85;30.52;;;5.70;96.20;;;;;;5025826;28;20480;-74
2022/03/13 00:33:10;;;;;;;35.10;31.40;;;5.60;96.20;;;;;;5036086;28;20118;-74
2022/03/13 00:35:38;;;;;;;40.10;31.58;;;5.70;96.30;;;;;;5003372;28;20098;-74
2022/03/13 00:38:06;;;;;;;34.60;31.10;;;5.60;96.40;;;;;;5002728;28;20685;-74
2022/03/13 00:40:34;;;;;;;33.95;30.63;;;5.60;96.50;;;;;;5000955;28;20470;-76
2022/03/13 00:43:01;;;;;;;35.70;32.00;;;5.60;96.60;;;;;;5021499;28;20511;-73
2022/03/13 00:45:29;;;;;;;34.80;31.25;;;5.50;96.80;;;;;;5017981;28;20127;-74
2022/03/13 00:47:57;;;;;;;35.85;32.20;;;5.50;97.10;;;;;;5001651;28;20296;-73
2022/03/13 00:50:24;;;;;;;34.65;31.35;;;5.20;98.00;;;;;;5001540;28;20068;-74
2022/03/13 00:52:50;;;;;;;36.03;32.40;;;4.90;98.60;;;;;;5002326;28;20061;-73
2022/03/13 00:55:17;;;;;;;36.42;32.78;;;4.70;99.10;;;;;;4987332;28;20073;-74
2022/03/13 00:57:44;;;;;;;35.42;31.70;;;4.70;99.20;;;;;;5019798;28;20132;-74
2022/03/13 01:00:12;;;;;;;36.83;33.05;;;4.50;98.70;;;;;;5007842;28;20138;-74
2022/03/13 01:02:41;;;;;;;35.15;31.80;;;4.60;98.10;;;;;;5027881;28;20070;-73
2022/03/13 01:05:10;;;;;;;34.03;30.85;;;4.80;96.60;;;;;;5039147;28;20362;-73
2022/03/13 01:07:38;;;;;;;34.70;31.27;;;5.10;95.80;;;;;;5012059;28;20042;-73
2022/03/13 01:10:09;;;;;;;35.28;31.60;;;5.30;95.10;;;;;;5002423;28;20530;-77
2022/03/13 01:12:36;;;;;;;35.60;31.83;;;5.40;95.10;;;;;;5006009;28;20046;-75
2022/03/13 01:15:05;;;;;;;34.75;31.35;;;5.40;94.80;;;;;;5023418;28;20083;-75
2022/03/13 01:17:31;;;;;;;35.80;32.20;;;5.40;94.90;;;;;;4988888;28;20045;-75
2022/03/13 01:19:58;;;;;;;35.28;31.70;;;5.40;94.60;;;;;;5005529;28;20045;-75
2022/03/13 01:22:25;;;;;;;37.83;33.30;;;5.40;94.60;;;;;;5005072;28;20128;-74
2022/03/13 01:24:53;;;;;;;35.47;30.95;;;5.40;94.80;;;;;;5100735;22;20064;-75
2022/03/13 01:27:22;;;;;;;39.70;33.53;;;5.40;94.60;;;;;;5062403;28;20043;-76
2022/03/13 01:29:49;;;;;;;37.97;32.42;;;5.30;94.80;;;;;;5051819;28;20632;-76
2022/03/13 01:32:16;;;;;;;34.38;31.15;;;5.30;94.80;;;;;;5062104;28;20110;-77
2022/03/13 01:34:48;;;;;;;35.95;32.08;;;5.30;95.10;;;;;;5063632;28;20071;-76
2022/03/13 01:37:15;;;;;;;38.67;34.05;;;5.10;95.20;;;;;;5045658;28;20084;-77
2022/03/13 01:39:42;;;;;;;36.78;32.53;;;5.10;95.00;;;;;;5029528;28;20098;-77
2022/03/13 01:42:10;;;;;;;35.85;32.25;;;5.10;95.20;;;;;;5044910;28;20068;-75
2022/03/13 01:44:37;;;;;;;35.08;31.27;;;5.10;95.10;;;;;;5045826;28;20076;-75
2022/03/13 01:47:05;;;;;;;34.25;30.77;;;5.00;95.20;;;;;;5045289;28;20041;-76
2022/03/13 01:49:32;;;;;;;34.78;30.95;;;5.00;95.20;;;;;;5048966;28;20048;-77
2022/03/13 01:52:01;;;;;;;34.00;30.58;;;4.90;95.30;;;;;;5045000;28;20533;-76
2022/03/13 01:54:30;;;;;;;34.25;30.95;;;4.90;95.40;;;;;;5047698;28;20508;-77
2022/03/13 01:56:59;;;;;;;33.80;30.80;;;4.90;95.30;;;;;;5035205;28;20662;-77
2022/03/13 01:59:30;;;;;;;34.03;30.65;;;4.90;95.30;;;;;;5062928;28;20105;-77
2022/03/13 02:01:57;;;;;;;34.00;30.63;;;4.90;95.20;;;;;;5061314;28;20106;-76
2022/03/13 02:04:27;;;;;;;34.03;30.73;;;4.80;95.20;;;;;;5044949;28;20118;-76
2022/03/13 02:06:55;;;;;;;33.78;30.27;;;4.80;95.20;;;;;;5045967;28;20475;-76
2022/03/13 02:09:23;;;;;;;33.50;30.08;;;4.90;95.10;;;;;;5046753;28;20044;-78
2022/03/13 02:11:51;;;;;;;32.95;29.80;;;4.80;94.90;;;;;;5045733;28;20076;-78
2022/03/13 02:14:22;;;;;;;33.38;30.13;;;4.90;94.90;;;;;;5045017;28;20052;-78
2022/03/13 02:16:50;;;;;;;32.63;29.63;;;4.90;94.90;;;;;;5063118;28;20539;-78
2022/03/13 02:19:17;;;;;;;33.58;30.30;;;4.90;94.90;;;;;;5045922;28;20068;-75
2022/03/13 02:21:51;;;;;;;33.60;30.42;;;4.80;94.90;;;;;;5044568;28;20222;-75
2022/03/13 02:24:24;;;;;;;33.33;30.17;;;4.80;94.80;;;;;;5063707;28;20060;-76
2022/03/13 02:27:09;;;;;;;33.92;30.58;;;4.80;94.80;;;;;;5070833;28;20078;-75
2022/03/13 02:29:36;;;;;;;33.88;30.48;;;4.80;94.80;;;;;;5050850;28;20048;-76
2022/03/13 02:32:03;;;;;;;36.10;31.50;;;4.80;94.90;;;;;;5072052;28;20059;-79
2022/03/13 02:34:30;;;;;;;34.08;30.92;;;4.70;94.90;;;;;;5091245;28;20062;-77
2022/03/13 02:37:02;;;;;;;34.28;30.65;;;4.70;94.90;;;;;;5085391;28;20056;-76
2022/03/13 02:39:33;;;;;;;33.95;30.42;;;4.60;95.00;;;;;;5066127;28;20497;-76
2022/03/13 02:42:00;;;;;;;34.67;31.30;;;4.60;94.90;;;;;;5044769;28;20052;-75
2022/03/13 02:44:27;;;;;;;35.10;31.58;;;4.60;94.70;;;;;;5045248;28;20426;-77
2022/03/13 02:46:58;;;;;;;35.17;31.38;;;4.60;94.80;;;;;;5044054;28;20696;-78
2022/03/13 02:49:27;;;;;;;34.95;31.17;;;4.60;94.50;;;;;;5061507;28;20138;-75
2022/03/13 02:51:58;;;;;;;36.30;30.35;;;4.60;94.50;;;;;;5047517;28;20519;-76
2022/03/13 02:54:26;;;;;;;32.50;29.45;;;4.50;94.30;;;;;;5044790;28;20048;-77
2022/03/13 02:56:53;;;;;;;33.20;29.98;;;4.60;94.10;;;;;;5027082;28;20559;-77
2022/03/13 02:59:20;;;;;;;32.65;29.40;;;4.60;94.20;;;;;;5062075;28;20195;-76
2022/03/13 03:01:47;;;;;;;32.38;29.38;;;4.60;93.80;;;;;;5042927;28;20040;-76
2022/03/13 03:04:16;;;;;;;33.05;29.98;;;4.70;93.60;;;;;;5062498;28;20045;-74
2022/03/13 03:06:55;;;;;;;32.05;29.17;;;4.70;93.60;;;;;;5061954;28;20049;-76
2022/03/13 03:09:23;;;;;;;32.67;29.60;;;4.70;93.60;;;;;;5061450;28;20052;-76
2022/03/13 03:11:50;;;;;;;32.75;29.75;;;4.70;93.60;;;;;;5061266;28;20070;-77
2022/03/13 03:14:19;;;;;;;33.72;30.52;;;4.60;93.80;;;;;;5043697;28;20044;-76
2022/03/13 03:16:46;;;;;;;33.15;29.88;;;4.60;93.70;;;;;;5061422;28;20391;-76
2022/03/13 03:19:13;;;;;;;32.88;29.75;;;4.50;94.10;;;;;;5043608;28;20537;-75
2022/03/13 03:21:40;;;;;;;32.10;29.10;;;4.40;94.20;;;;;;5043042;28;20070;-75
2022/03/13 03:24:16;;;;;;;32.30;29.00;;;4.30;94.80;;;;;;5062049;28;20044;-75
2022/03/13 03:26:43;;;;;;;33.17;29.95;;;4.20;94.90;;;;;;5040375;28;20129;-75
2022/03/13 03:29:09;;;;;;;32.65;29.42;;;4.10;94.10;;;;;;5050737;28;20052;-75
2022/03/13 03:31:40;;;;;;;32.33;29.30;;;4.10;94.70;;;;;;5025918;28;20526;-76
2022/03/13 03:34:15;;;;;;;32.50;29.25;;;4.10;95.40;;;;;;5027213;28;20109;-76
2022/03/13 03:36:48;;;;;;;31.77;28.80;;;3.80;95.60;;;;;;5043114;28;20460;-76
2022/03/13 03:39:16;;;;;;;33.92;30.58;;;3.70;95.70;;;;;;5042311;28;20133;-75
2022/03/13 03:41:45;;;;;;;33.55;30.08;;;3.60;95.90;;;;;;5040705;28;20048;-75
2022/03/13 03:44:13;;;;;;;34.35;30.65;;;3.50;96.50;;;;;;5060966;28;20119;-77
2022/03/13 03:46:41;;;;;;;32.80;29.17;;;3.30;96.10;;;;;;5040571;28;20478;-76
2022/03/13 03:49:08;;;;;;;32.42;29.38;;;3.20;96.50;;;;;;5074447;28;20063;-76
2022/03/13 03:51:36;;;;;;;34.03;30.33;;;3.10;96.30;;;;;;5079427;28;20048;-76
2022/03/13 03:54:04;;;;;;;35.78;29.77;;;3.10;96.90;;;;;;5039498;28;20117;-76
2022/03/13 03:56:31;;;;;;;33.20;29.90;;;3.10;97.00;;;;;;5025188;28;20076;-76
2022/03/13 03:58:59;;;;;;;32.92;29.63;;;3.10;95.80;;;;;;5039608;28;20061;-77
2022/03/13 04:01:25;;;;;;;31.38;28.48;;;3.10;95.70;;;;;;5043009;28;20105;-76
2022/03/13 04:03:52;;;;;;;32.05;29.02;;;3.30;94.60;;;;;;5042160;28;20178;-75
2022/03/13 04:06:19;;;;;;;32.13;29.17;;;3.40;94.70;;;;;;5060086;28;20453;-76
2022/03/13 04:08:47;;;;;;;33.85;30.33;;;3.50;94.60;;;;;;5042711;28;20056;-76
2022/03/13 04:11:13;;;;;;;31.63;28.77;;;3.60;94.40;;;;;;5041731;28;20217;-76
2022/03/13 04:13:41;;;;;;;32.65;29.35;;;3.60;94.60;;;;;;5041909;28;20133;-76
2022/03/13 04:16:12;;;;;;;32.13;29.13;;;3.60;94.70;;;;;;5041745;28;20056;-76
2022/03/13 04:18:39;;;;;;;31.52;28.48;;;3.60;94.60;;;;;;5044538;28;20257;-77
2022/03/13 04:21:06;;;;;;;32.25;29.35;;;3.70;94.30;;;;;;5045589;28;20208;-76
2022/03/13 04:23:35;;;;;;;32.10;28.92;;;3.70;94.40;;;;;;5056343;28;20540;-77
2022/03/13 04:26:03;;;;;;;33.50;30.13;;;3.70;94.30;;;;;;5040268;28;20044;-76
2022/03/13 04:28:31;;;;;;;33.22;30.05;;;3.70;94.60;;;;;;5041757;28;20060;-77
2022/03/13 04:30:58;;;;;;;31.98;29.08;;;3.60;94.60;;;;;;5039664;28;20511;-76
2022/03/13 04:33:27;;;;;;;32.35;29.15;;;3.60;94.90;;;;;;5041990;28;20056;-76
2022/03/13 04:36:00;;;;;;;30.45;27.65;;;3.60;94.60;;;;;;5042555;28;20420;-77
2022/03/13 04:38:28;;;;;;;32.22;29.23;;;3.60;94.50;;;;;;5042677;28;20452;-76
2022/03/13 04:40:56;;;;;;;31.60;28.58;;;3.60;94.40;;;;;;5039629;28;20252;-76
2022/03/13 04:43:24;;;;;;;33.35;30.25;;;3.70;94.40;;;;;;5042236;28;20123;-77
2022/03/13 04:45:52;;;;;;;32.45;29.20;;;3.70;94.30;;;;;;5026998;28;20040;-75
2022/03/13 04:48:20;;;;;;;31.83;28.73;;;3.60;94.90;;;;;;5053805;28;20105;-76
2022/03/13 04:50:47;;;;;;;32.60;29.63;;;3.60;94.50;;;;;;5064776;28;20032;-76
2022/03/13 04:53:15;;;;;;;32.03;29.05;;;3.60;94.50;;;;;;5066481;28;20040;-76
2022/03/13 04:55:42;;;;;;;32.88;29.67;;;3.50;94.60;;;;;;5048968;28;20040;-75
2022/03/13 04:58:13;;;;;;;32.22;29.20;;;3.50;94.70;;;;;;5029875;28;20044;-75
2022/03/13 05:00:40;;;;;;;32.15;28.92;;;3.40;94.80;;;;;;5044179;28;20326;-76
2022/03/13 05:03:10;;;;;;;32.25;29.30;;;3.40;94.90;;;;;;5029043;28;20048;-76
2022/03/13 05:05:37;;;;;;;32.97;29.95;;;3.30;95.00;;;;;;5045432;28;20460;-75
2022/03/13 05:08:05;;;;;;;33.30;29.80;;;3.20;95.00;;;;;;5045726;28;20040;-77
2022/03/13 05:10:39;;;;;;;34.15;30.35;;;3.20;94.90;;;;;;5045167;28;20040;-77
2022/03/13 05:13:07;;;;;;;33.42;30.05;;;3.30;94.70;;;;;;5045738;28;20057;-76
2022/03/13 05:15:36;;;;;;;33.78;30.48;;;3.20;94.70;;;;;;5045065;28;20083;-76
2022/03/13 05:18:03;;;;;;;34.30;30.88;;;3.30;94.30;;;;;;5029235;28;20078;-76
2022/03/13 05:20:31;;;;;;;32.60;29.58;;;3.30;94.10;;;;;;5044419;28;20300;-76
2022/03/13 05:22:58;;;;;;;34.15;30.88;;;3.30;93.90;;;;;;5029007;28;20052;-76
2022/03/13 05:25:25;;;;;;;33.72;30.58;;;3.30;93.80;;;;;;5064647;28;20052;-76
2022/03/13 05:27:53;;;;;;;33.22;30.13;;;3.40;93.60;;;;;;5025081;28;20052;-76
2022/03/13 05:30:20;;;;;;;34.58;31.15;;;3.40;93.80;;;;;;5054079;28;20041;-76
2022/03/13 05:32:48;;;;;;;33.70;30.58;;;3.30;93.60;;;;;;5044791;28;20065;-75
2022/03/13 05:35:16;;;;;;;34.22;31.05;;;3.40;93.30;;;;;;5044516;28;20131;-75
2022/03/13 05:37:46;;;;;;;34.35;31.10;;;3.50;93.30;;;;;;5063462;28;20059;-76
2022/03/13 05:40:15;;;;;;;33.83;30.25;;;3.50;93.70;;;;;;5062559;28;20060;-77
2022/03/13 05:42:45;;;;;;;34.15;31.08;;;3.50;93.70;;;;;;5044545;28;20167;-76
2022/03/13 05:45:13;;;;;;;36.95;33.45;;;3.30;94.00;;;;;;5042394;28;20379;-76
2022/03/13 05:47:48;;;;;;;33.80;30.50;;;3.20;94.30;;;;;;5061665;28;20118;-76
2022/03/13 05:50:16;;;;;;;;;;;3.20;94.10;;;;;;5061797;28;20052;-76
2022/03/13 05:52:46;;;;;;;33.67;30.67;;;3.10;94.30;;;;;;5051182;28;19997;-78
2022/03/13 05:55:14;;;;;;;34.38;31.08;;;3.00;94.50;;;;;;5035079;28;20041;-76
2022/03/13 05:57:41;;;;;;;38.92;35.55;;;3.00;94.50;;;;;;5024104;28;20048;-76
2022/03/13 06:00:11;;;;;;;38.17;34.78;;;2.90;94.50;;;;;;5043209;28;20449;-76
2022/03/13 06:02:42;;;;;;;38.13;34.83;;;2.90;94.30;;;;;;5061435;28;20048;-76
2022/03/13 06:05:11;;;;;;;38.67;35.42;;;3.00;94.30;;;;;;5061949;28;20102;-76
2022/03/13 06:07:39;;;;;;;39.88;35.97;;;3.10;94.40;;;;;;5061881;28;20033;-76
2022/03/13 06:10:13;;;;;;;37.77;34.67;;;3.00;94.50;;;;;;5043808;28;20509;-76
2022/03/13 06:12:40;;;;;;;39.03;35.80;;;3.00;94.10;;;;;;5062157;28;20052;-75
2022/03/13 06:15:11;;;;;;;38.25;34.90;;;2.90;94.10;;;;;;5047131;28;20552;-76
2022/03/13 06:17:43;;;;;;;38.53;35.03;;;3.00;93.90;;;;;;5047994;28;20060;-76
2022/03/13 06:20:11;;;;;;;37.60;34.33;;;3.00;94.30;;;;;;5043132;28;20306;-76
2022/03/13 06:22:39;;;;;;;38.17;34.97;;;3.10;94.20;;;;;;5042944;28;20398;-76
2022/03/13 06:25:10;;;;;;;37.30;33.97;;;3.00;94.50;;;;;;5046228;28;20151;-76
2022/03/13 06:27:37;;;;;;;37.67;34.45;;;3.00;94.50;;;;;;5059706;28;20136;-77
2022/03/13 06:30:13;;;;;;;38.55;35.20;;;2.90;95.40;;;;;;5043429;28;20044;-76
2022/03/13 06:32:41;;;;;;;37.50;34.08;;;2.80;95.50;;;;;;5043095;28;20048;-76
2022/03/13 06:35:09;;;;;;;37.95;34.70;;;2.70;95.40;;;;;;5060155;28;20044;-76
2022/03/13 06:37:38;;;;;;;39.75;35.75;;;2.70;95.40;;;;;;5043444;28;20486;-76
2022/03/13 06:40:10;;;;;;;39.15;35.30;;;2.70;96.20;;;;;;5042819;28;20052;-76
2022/03/13 06:42:38;;;;;;;39.45;35.25;;;2.70;95.70;;;;;;5059968;28;20140;-76
2022/03/13 06:45:06;;;;;;;37.90;34.30;;;2.70;96.80;;;;;;5029201;28;20296;-76
2022/03/13 06:47:34;;;;;;;38.70;35.05;;;2.70;96.50;;;;;;5050783;28;20125;-76
2022/03/13 06:50:01;;;;;;;38.65;35.00;;;2.60;97.00;;;;;;5041892;28;20057;-74
2022/03/13 06:52:28;;;;;;;37.45;34.05;;;2.60;97.10;;;;;;5042941;28;20302;-76
2022/03/13 06:54:54;;;;;;;37.78;34.65;;;2.70;95.40;;;;;;5042681;28;20469;-76
2022/03/13 06:57:21;;;;;;;39.03;35.72;;;2.90;94.70;;;;;;5042710;28;20052;-76
2022/03/13 06:59:48;;;;;;;38.45;34.95;;;3.20;94.00;;;;;;5041669;28;20205;-76
2022/03/13 07:02:15;;;;;;;40.60;36.75;;;3.40;93.90;;;;;;5059832;28;20266;-76
2022/03/13 07:04:42;;;;;;;40.15;37.00;;;3.50;93.70;;;;;;5043276;28;20580;-76
2022/03/13 07:07:09;;;;;;;38.28;35.15;;;3.70;93.50;;;;;;5042710;28;20040;-76
2022/03/13 07:09:35;;;;;;;37.97;34.80;;;3.90;92.90;;;;;;5060538;28;20094;-75
2022/03/13 07:12:04;;;;;;;39.30;35.92;;;4.00;92.50;;;;;;5041895;28;20040;-77
2022/03/13 07:14:33;;;;;;;37.67;34.53;;;4.10;92.50;;;;;;5042652;28;20135;-78
2022/03/13 07:16:59;;;;;;;37.22;34.22;;;4.20;92.00;;;;;;5054637;28;20056;-76
2022/03/13 07:19:26;;;;;;;35.67;32.78;;;4.30;92.00;;;;;;5024462;28;20041;-77
2022/03/13 07:21:53;;;;;;;37.85;34.97;;;4.40;92.00;;;;;;5033592;28;20485;-77
2022/03/13 07:24:20;;;;;;;38.90;35.40;;;4.50;91.30;;;;;;5058373;28;20036;-76
2022/03/13 07:26:47;;;;;;;35.30;32.42;;;4.60;90.90;;;;;;5012842;22;20207;-70
2022/03/13 07:29:13;;;;;;;36.85;34.03;;;4.70;90.90;;;;;;4969052;28;20049;-69
2022/03/13 07:31:40;;;;;;;37.15;34.10;;;4.80;90.90;;;;;;4938404;28;20101;-72
2022/03/13 07:34:07;;;;;;;37.45;34.45;;;4.80;90.50;;;;;;4973090;28;20169;-70
2022/03/13 07:36:34;;;;;;;37.38;34.45;;;4.80;90.50;;;;;;4972790;28;20414;-69
2022/03/13 07:39:02;;;;;;;37.88;34.85;;;4.80;90.70;;;;;;4972488;28;20046;-71
2022/03/13 07:41:30;;;;;;;37.45;34.63;;;4.80;90.70;;;;;;4970226;28;20514;-70
2022/03/13 07:43:57;;;;;;;38.47;35.58;;;4.80;90.80;;;;;;4970047;28;20105;-71
2022/03/13 07:46:23;;;;;;;37.00;34.03;;;4.90;90.50;;;;;;4969630;28;20100;-70
2022/03/13 07:48:50;;;;;;;38.70;35.80;;;5.00;90.40;;;;;;4972492;28;20145;-70
2022/03/13 07:51:19;;;;;;;39.42;36.40;;;5.10;90.40;;;;;;4970678;28;20046;-70
2022/03/13 07:53:46;;;;;;;37.92;35.05;;;5.20;90.50;;;;;;4963522;28;20126;-68
2022/03/13 07:56:13;;;;;;;38.40;35.60;;;5.20;90.00;;;;;;4951557;28;20065;-72
2022/03/13 07:58:40;;;;;;;38.92;35.95;;;5.30;90.40;;;;;;4972375;28;20538;-72
2022/03/13 08:01:06;;;;;;;39.13;36.28;;;5.40;90.20;;;;;;4954784;28;20415;-70
2022/03/13 08:03:37;;;;;;;34.83;32.25;;;5.60;90.00;;;;;;4953397;28;20424;-69
2022/03/13 08:06:04;;;;;;;38.85;35.78;;;5.70;89.40;;;;;;4952559;28;20655;-69
2022/03/13 08:08:35;;;;;;;37.97;35.05;;;5.80;89.20;;;;;;4951733;28;20078;-68
2022/03/13 08:11:02;;;;;;;41.00;37.80;;;6.00;88.20;;;;;;4952389;28;20046;-71
2022/03/13 08:13:29;;;;;;;40.10;37.10;;;6.00;87.80;;;;;;4952492;28;20054;-69
2022/03/13 08:15:59;;;;;;;39.40;36.42;;;6.20;89.10;;;;;;4952140;28;20165;-68
2022/03/13 08:18:28;;;;;;;38.25;34.90;;;6.40;88.30;;;;;;4954013;28;20466;-66
2022/03/13 08:20:55;;;;;;;37.67;34.85;;;6.40;87.80;;;;;;4969863;28;20854;-69
2022/03/13 08:23:22;;;;;;;36.92;34.28;;;6.50;88.00;;;;;;4970306;28;20050;-70
2022/03/13 08:25:49;;;;;;;37.72;35.03;;;6.50;87.40;;;;;;4964982;28;20046;-67
2022/03/13 08:28:15;;;;;;;37.45;34.83;;;6.60;88.40;;;;;;4958296;28;20057;-67
2022/03/13 08:30:42;;;;;;;39.72;36.70;;;6.70;87.30;;;;;;4964758;28;20042;-70
2022/03/13 08:33:09;;;;;;;37.83;35.17;;;7.00;88.00;;;;;;4958343;28;20085;-67
2022/03/13 08:35:36;;;;;;;41.10;38.05;;;7.10;86.30;;;;;;4936744;28;20105;-71
2022/03/13 08:38:03;;;;;;;40.55;37.35;;;7.10;86.70;;;;;;4954532;28;20058;-68
2022/03/13 08:40:30;;;;;;;40.83;37.92;;;7.10;87.70;;;;;;4954061;28;20454;-69
2022/03/13 08:42:57;;;;;;;40.50;37.20;;;6.80;87.60;;;;;;4952544;28;20238;-70
2022/03/13 08:45:24;;;;;;;38.42;35.70;;;6.80;87.90;;;;;;4934898;28;20039;-68
2022/03/13 08:47:51;;;;;;;42.10;39.08;;;7.00;87.50;;;;;;4958694;28;20316;-69
2022/03/13 08:50:20;;;;;;;42.25;39.08;;;7.00;88.00;;;;;;4972799;28;20112;-67
2022/03/13 08:52:47;;;;;;;41.75;38.63;;;7.00;87.60;;;;;;4973341;28;20469;-69
2022/03/13 08:55:18;;;;;;;40.88;37.33;;;7.10;88.10;;;;;;4968614;28;20077;-68
2022/03/13 08:57:45;;;;;;;42.38;39.00;;;7.50;88.40;;;;;;4973214;28;20242;-69
2022/03/13 09:00:15;;;;;;;43.28;40.15;;;7.80;88.70;;;;;;4973057;28;20085;-68
2022/03/13 09:02:44;;;;;;;42.45;39.40;;;7.70;86.90;;;;;;4955590;28;20109;-70
2022/03/13 09:05:11;;;;;;;43.38;40.08;;;7.50;87.60;;;;;;4974115;28;20042;-68
2022/03/13 09:07:38;;;;;;;44.63;41.35;;;7.60;87.30;;;;;;4970795;28;20050;-69
2022/03/13 09:10:07;;;;;;;44.22;41.20;;;7.80;86.20;;;;;;4972119;28;20469;-69
2022/03/13 09:12:35;;;;;;;42.75;39.85;;;7.90;86.90;;;;;;4972970;28;20050;-70
2022/03/13 09:15:03;;;;;;;43.90;40.35;;;7.90;86.60;;;;;;4940592;28;20664;-68
2022/03/13 09:17:30;;;;;;;42.00;39.20;;;8.10;86.50;;;;;;4971390;28;20066;-70
2022/03/13 09:19:57;;;;;;;42.47;39.53;;;8.10;85.90;;;;;;4955262;28;20050;-68
2022/03/13 09:22:29;;;;;;;39.25;36.35;;;8.10;85.90;;;;;;4972657;28;20054;-69
2022/03/13 09:25:00;;;;;;;41.60;38.15;;;8.20;85.90;;;;;;4966853;28;20049;-70
2022/03/13 09:27:29;;;;;;;39.45;36.67;;;8.20;87.00;;;;;;4956223;28;20042;-70
2022/03/13 09:29:57;;;;;;;41.35;38.22;;;8.50;85.50;;;;;;4955461;28;20482;-70
2022/03/13 09:32:25;;;;;;;41.50;38.03;;;8.50;87.60;;;;;;4954493;28;20043;-69
2022/03/13 09:34:53;;;;;;;41.72;38.47;;;8.80;86.50;;;;;;4975651;28;20347;-69
2022/03/13 09:37:21;;;;;;;43.75;40.63;;;8.90;86.20;;;;;;4970397;28;20062;-69
2022/03/13 09:40:10;;;;;;;40.25;37.15;;;9.20;85.90;;;;;;4953889;28;20395;-69
2022/03/13 09:42:37;;;;;;;43.90;40.70;;;9.10;85.40;;;;;;4956567;28;20054;-68
2022/03/13 09:45:05;;;;;;;40.88;37.97;;;9.10;85.90;;;;;;4951789;28;20487;-72
2022/03/13 09:47:32;;;;;;;41.58;38.42;;;9.20;85.70;;;;;;4957630;28;20050;-71
2022/03/13 09:49:59;;;;;;;41.83;38.72;;;9.40;86.70;;;;;;4958398;28;20447;-70
2022/03/13 09:52:25;;;;;;;45.13;42.05;;;9.60;87.40;;;;;;4975612;28;20218;-67
2022/03/13 09:54:52;;;;;;;46.50;42.92;;;9.60;85.80;;;;;;4970727;28;20046;-71
2022/03/13 09:57:20;;;;;;;45.28;41.95;;;9.60;86.40;;;;;;4958569;28;20601;-70
2022/03/13 09:59:47;;;;;;;44.35;41.20;;;9.50;86.70;;;;;;4970550;28;20434;-69
2022/03/13 10:02:14;;;;;;;41.45;38.17;;;9.40;86.60;;;;;;4964260;28;20269;-69
2022/03/13 10:04:41;;;;;;;41.70;38.13;;;9.40;87.70;;;;;;4963396;28;20649;-70
2022/03/13 10:07:10;;;;;;;39.45;36.05;;;9.50;87.70;;;;;;4953311;28;20191;-69
2022/03/13 10:09:39;;;;;;;37.42;34.58;;;9.40;87.90;;;;;;4964087;28;20055;-71
2022/03/13 10:12:09;;;;;;;35.35;32.28;;;9.70;88.70;;;;;;4950372;28;20043;-71
2022/03/13 10:14:39;;;;;;;44.67;41.50;;;9.90;87.00;;;;;;4969224;28;20633;-70
2022/03/13 10:17:29;;;;;;;37.60;34.78;;;9.90;88.10;;;;;;4951576;28;20467;-71
2022/03/13 10:20:17;;;;;;;37.83;34.92;;;9.90;87.40;;;;;;4966099;28;20046;-71
2022/03/13 10:22:49;;;;;;;38.13;35.13;;;9.90;85.60;;;;;;4959358;28;20596;-70
2022/03/13 10:25:30;;;;;;;38.75;35.38;;;10.00;88.00;;;;;;4970923;28;20055;-70
2022/03/13 10:28:19;;;;;;;45.90;42.63;;;10.50;87.40;;;;;;4958743;28;20529;-70
2022/03/13 10:31:06;;;;;;;46.90;43.60;;;10.80;87.00;;;;;;4966421;28;20433;-70
2022/03/13 10:33:57;;;;;;;46.72;43.55;;;11.00;81.70;;;;;;4951612;28;20054;-70
2022/03/13 10:36:31;;;;;;;45.78;42.78;;;10.80;81.00;;;;;;4972194;28;20379;-71
2022/03/13 10:39:03;;;;;;;45.42;42.38;;;10.90;80.90;;;;;;4967756;28;20533;-69
2022/03/13 10:41:40;;;;;;;46.35;43.55;;;10.80;80.10;;;;;;4958450;28;20283;-71
2022/03/13 10:44:13;;;;;;;44.03;41.10;;;10.90;81.10;;;;;;4951214;28;20181;-68
2022/03/13 10:46:42;;;;;;;47.38;44.33;;;10.90;78.50;;;;;;4974841;28;20050;-70
2022/03/13 10:49:09;;;;;;;46.65;43.72;;;11.00;78.40;;;;;;4962356;28;20245;-68
2022/03/13 10:51:45;;;;;;;48.22;45.17;;;11.00;78.60;;;;;;4974613;28;20057;-70
2022/03/13 10:54:34;;;;;;;46.67;43.75;;;11.40;77.30;;;;;;4973256;28;20511;-68
2022/03/13 10:57:09;;;;;;;45.28;42.40;;;11.80;77.20;;;;;;4967520;28;20047;-70
2022/03/13 10:59:37;;;;;;;;;;;12.00;77.30;;;;;;4954475;28;20517;-69
2022/03/13 11:02:11;;;;;;;47.90;44.70;;;11.80;74.40;;;;;;4957004;28;20256;-70
2022/03/13 11:04:51;;;;;;;47.00;44.13;;;11.80;77.20;;;;;;4937405;28;20070;-67
2022/03/13 11:07:19;;;;;;;48.50;45.30;;;11.80;75.10;;;;;;4951682;28;20042;-70
2022/03/13 11:09:47;;;;;;;47.65;44.72;;;12.10;75.00;;;;;;4959710;28;20097;-70
2022/03/13 11:12:22;;;;;;;47.28;44.03;;;12.20;74.70;;;;;;4935785;28;20553;-69
2022/03/13 11:14:52;;;;;;;45.13;42.40;;;12.10;73.50;;;;;;4951481;28;20058;-69
2022/03/13 11:17:22;;;;;;;46.25;43.20;;;12.30;75.00;;;;;;4934450;28;20062;-72
2022/03/13 11:19:51;;;;;;;48.33;45.22;;;12.40;75.50;;;;;;4950509;28;20061;-70
2022/03/13 11:22:22;;;;;;;49.03;46.13;;;12.20;73.00;;;;;;4967716;28;20065;-71
2022/03/13 11:24:55;;;;;;;49.05;45.97;;;12.10;74.00;;;;;;4951755;28;20562;-68
2022/03/13 11:27:25;;;;;;;50.15;47.00;;;12.30;75.40;;;;;;4958730;28;20271;-71
2022/03/13 11:29:53;;;;;;;48.75;45.60;;;12.30;74.10;;;;;;4952116;28;20057;-70
2022/03/13 11:32:40;;;;;;;50.63;47.33;;;12.20;74.10;;;;;;4968975;28;20038;-69
2022/03/13 11:35:18;;;;;;;48.40;45.45;;;12.50;74.40;;;;;;4968204;28;20289;-69
2022/03/13 11:37:46;;;;;;;47.38;44.38;;;12.50;73.80;;;;;;4970061;28;20291;-69
2022/03/13 11:40:16;;;;;;;47.40;44.33;;;12.50;73.70;;;;;;4954092;28;20221;-70
2022/03/13 11:42:50;;;;;;;46.97;44.08;;;12.40;73.40;;;;;;4949672;28;20051;-68
2022/03/13 11:45:33;;;;;;;49.08;45.80;;;12.50;74.00;;;;;;4963078;28;20622;-70
2022/03/13 11:48:17;;;;;;;47.63;44.53;;;12.80;73.40;;;;;;4964496;28;20194;-69
2022/03/13 11:50:48;;;;;;;48.67;45.45;;;13.00;73.00;;;;;;4950864;28;20047;-68
2022/03/13 11:53:26;;;;;;;48.28;45.25;;;12.90;72.40;;;;;;4950342;28;20059;-70
2022/03/13 11:56:28;;;;;;;49.45;46.15;;;12.80;73.70;;;;;;4962762;28;20491;-70
2022/03/13 11:58:58;;;;;;;49.95;46.72;;;12.70;73.10;;;;;;4957134;28;20146;-71
2022/03/13 12:01:34;;;;;;;47.90;44.80;;;12.80;74.70;;;;;;4966795;28;20265;-69
2022/03/13 12:04:03;;;;;;;48.08;44.85;;;12.90;74.60;;;;;;4949687;28;20051;-69
2022/03/13 12:06:47;;;;;;;48.10;45.17;;;13.00;74.90;;;;;;4949960;28;20043;-70
2022/03/13 12:09:19;;;;;;;48.65;45.55;;;13.00;73.50;;;;;;4948732;28;20175;-71
2022/03/13 12:11:55;;;;;;;46.80;43.60;;;13.00;74.50;;;;;;4931952;28;20058;-70
2022/03/13 12:14:57;;;;;;;48.35;44.90;;;13.10;73.90;;;;;;4932274;28;20434;-70
2022/03/13 12:17:26;;;;;;;48.10;44.97;;;13.20;74.50;;;;;;4951906;28;20058;-72
2022/03/13 12:19:56;;;;;;;49.85;46.60;;;13.40;75.40;;;;;;4949617;28;20054;-71
2022/03/13 12:22:28;;;;;;;48.53;45.22;;;13.30;74.10;;;;;;4966960;28;20053;-71
2022/03/13 12:25:00;;;;;;;48.42;44.95;;;13.20;75.30;;;;;;4962561;28;20454;-70
2022/03/13 12:27:27;;;;;;;48.58;45.25;;;13.40;75.50;;;;;;4956126;28;20047;-69
2022/03/13 12:29:56;;;;;;;47.58;44.40;;;13.60;75.70;;;;;;4956311;28;20108;-69
2022/03/13 12:32:34;;;;;;;47.75;44.65;;;13.50;74.90;;;;;;4967580;28;20437;-70
2022/03/13 12:35:04;;;;;;;46.35;43.05;;;13.50;75.00;;;;;;4951053;28;20054;-71
2022/03/13 12:37:31;;;;;;;45.65;42.35;;;13.60;75.60;;;;;;4968815;28;20058;-70
2022/03/13 12:40:02;;;;;;;48.15;44.72;;;13.30;75.70;;;;;;4967197;28;20054;-69
2022/03/13 12:42:34;;;;;;;47.15;43.63;;;13.30;75.20;;;;;;4967468;28;20125;-71
2022/03/13 12:45:12;;;;;;;46.35;43.25;;;13.40;75.80;;;;;;4949241;28;20522;-72
2022/03/13 12:47:42;;;;;;;45.75;42.58;;;13.40;75.70;;;;;;4968329;28;20082;-70